Time;durP1;ratioP1;P1;durP2;ratioP2;P2;SDS_P1;SDS_P2;PMS_P1;PMS_P2;Temp;Humidity;BMP_temperature;BMP_pressure;BME280_temperature;BME280_humidity;BME280_pressure;Samples;Min_cycle;Max_cycle;Signal;HPM_P1;HPM_P2
2022/09/26 00:01:07;;;;;;;13.33;10.40;;;12.30;99.90;;;;;;5055228;28;20455;-86
2022/09/26 00:03:34;;;;;;;14.50;11.23;;;12.30;99.90;;;;;;5055078;28;20455;-86
2022/09/26 00:06:01;;;;;;;16.57;11.40;;;12.30;99.90;;;;;;5054871;28;20866;-87
2022/09/26 00:08:28;;;;;;;14.53;10.30;;;12.20;99.90;;;;;;5054856;28;20505;-86
2022/09/26 00:10:57;;;;;;;17.20;12.33;;;12.20;99.90;;;;;;5055062;28;20458;-88
2022/09/26 00:13:24;;;;;;;14.13;11.33;;;12.10;99.90;;;;;;5054454;28;20973;-86
2022/09/26 00:15:51;;;;;;;15.67;12.50;;;12.00;99.90;;;;;;5054380;28;20474;-86
2022/09/26 00:18:19;;;;;;;14.70;12.30;;;11.90;99.90;;;;;;5053282;28;20462;-86
2022/09/26 00:20:46;;;;;;;14.03;12.63;;;11.90;99.90;;;;;;5053996;28;20462;-86
2022/09/26 00:23:12;;;;;;;13.80;12.40;;;11.90;99.90;;;;;;5053878;28;20460;-86
2022/09/26 00:25:45;;;;;;;13.33;10.83;;;11.90;99.90;;;;;;5054011;28;20491;-87
2022/09/26 00:28:12;;;;;;;11.60;10.40;;;11.90;99.90;;;;;;5053512;28;20443;-87
2022/09/26 00:30:39;;;;;;;13.93;12.03;;;11.80;99.90;;;;;;5053447;28;20451;-87
2022/09/26 00:33:06;;;;;;;14.73;11.20;;;11.80;99.90;;;;;;5053789;28;20832;-87
2022/09/26 00:35:35;;;;;;;14.33;11.67;;;11.70;99.90;;;;;;5053320;28;20471;-86
2022/09/26 00:38:01;;;;;;;15.20;12.50;;;11.70;99.90;;;;;;5054172;28;20455;-86
2022/09/26 00:40:29;;;;;;;12.73;9.73;;;11.70;99.90;;;;;;5054279;28;20956;-86
2022/09/26 00:42:56;;;;;;;14.57;12.47;;;11.70;99.90;;;;;;5054016;28;20461;-86
2022/09/26 00:45:24;;;;;;;15.50;12.47;;;11.70;99.90;;;;;;5054372;28;20482;-86
2022/09/26 00:47:56;;;;;;;12.07;10.20;;;11.60;99.90;;;;;;5053916;28;20471;-86
2022/09/26 00:50:26;;;;;;;14.33;10.70;;;11.60;99.90;;;;;;5054340;28;20455;-86
2022/09/26 00:52:59;;;;;;;13.73;10.53;;;11.60;99.90;;;;;;5053945;28;20465;-86
2022/09/26 00:55:34;;;;;;;12.70;10.20;;;11.50;99.90;;;;;;5053940;28;21014;-86
2022/09/26 00:58:06;;;;;;;15.70;12.57;;;11.50;99.90;;;;;;5053851;28;20902;-86
2022/09/26 01:01:06;;;;;;;11.63;10.30;;;11.50;99.90;;;;;;5054102;28;20463;-85
2022/09/26 01:03:37;;;;;;;16.63;11.73;;;11.40;99.90;;;;;;5047484;28;20462;-85
2022/09/26 01:06:04;;;;;;;11.67;10.37;;;11.40;99.90;;;;;;5095663;22;20498;-82
2022/09/26 01:08:36;;;;;;;12.73;11.40;;;11.30;99.90;;;;;;5077399;28;20449;-82
2022/09/26 01:11:03;;;;;;;10.93;9.83;;;11.20;99.90;;;;;;5077661;28;20448;-82
2022/09/26 01:13:31;;;;;;;12.23;10.80;;;11.20;99.90;;;;;;5077495;28;20438;-81
2022/09/26 01:15:58;;;;;;;12.20;10.83;;;11.20;99.90;;;;;;5077103;28;21013;-82
2022/09/26 01:18:25;;;;;;;14.30;12.63;;;11.10;99.90;;;;;;5077284;28;20453;-82
2022/09/26 01:20:58;;;;;;;10.17;9.17;;;11.10;99.90;;;;;;5077375;28;20445;-82
2022/09/26 01:24:04;;;;;;;15.33;10.00;;;11.10;99.90;;;;;;5077746;28;20457;-81
2022/09/26 01:26:52;;;;;;;13.23;10.10;;;11.00;99.90;;;;;;5082873;28;20492;-82
2022/09/26 01:30:00;;;;;;;12.43;11.23;;;10.90;99.90;;;;;;5082486;28;20817;-82
2022/09/26 01:32:49;;;;;;;14.33;10.13;;;10.90;99.90;;;;;;5077954;28;20234;-82
2022/09/26 01:35:41;;;;;;;11.70;9.87;;;10.90;99.90;;;;;;5077215;28;20466;-82
2022/09/26 01:38:23;;;;;;;14.13;10.10;;;10.80;99.90;;;;;;5048518;28;20458;-82
2022/09/26 01:41:02;;;;;;;15.93;10.77;;;10.80;99.90;;;;;;5061899;28;20467;-83
2022/09/26 01:43:35;;;;;;;12.20;10.10;;;10.70;99.90;;;;;;5077128;28;20212;-82
2022/09/26 01:46:07;;;;;;;12.83;10.60;;;10.70;99.90;;;;;;5076576;28;20231;-82
2022/09/26 01:48:40;;;;;;;13.23;11.02;;;10.70;99.90;;;;;;5076647;28;20455;-82
2022/09/26 01:51:12;;;;;;;14.80;11.33;;;10.60;99.90;;;;;;5076486;28;20208;-82
2022/09/26 01:53:46;;;;;;;11.30;10.17;;;10.60;99.90;;;;;;5076994;28;20450;-82
2022/09/26 01:56:17;;;;;;;12.67;11.07;;;10.60;99.90;;;;;;5076499;28;20488;-81
2022/09/26 01:58:49;;;;;;;15.50;9.80;;;10.60;99.90;;;;;;5076428;28;20448;-82
2022/09/26 02:01:18;;;;;;;10.60;9.50;;;10.60;99.90;;;;;;5076593;28;20477;-82
2022/09/26 02:03:51;;;;;;;11.97;9.87;;;10.60;99.90;;;;;;5076290;28;20445;-82
2022/09/26 02:06:23;;;;;;;13.80;11.93;;;10.60;99.90;;;;;;5076119;28;20490;-82
2022/09/26 02:08:56;;;;;;;12.57;11.23;;;10.60;99.90;;;;;;5076446;28;20452;-82
2022/09/26 02:11:23;;;;;;;14.90;11.80;;;10.60;99.90;;;;;;5076594;28;20453;-82
2022/09/26 02:13:55;;;;;;;16.03;11.47;;;10.60;99.90;;;;;;5076505;28;20450;-82
2022/09/26 02:16:27;;;;;;;12.00;10.67;;;10.70;99.90;;;;;;5076281;28;20715;-82
2022/09/26 02:18:59;;;;;;;11.27;10.13;;;10.70;99.90;;;;;;5075619;28;20452;-82
2022/09/26 02:21:26;;;;;;;11.23;10.10;;;10.70;99.90;;;;;;5076460;28;20453;-82
2022/09/26 02:23:53;;;;;;;12.40;10.50;;;10.70;99.90;;;;;;5076606;28;20457;-83
2022/09/26 02:26:20;;;;;;;12.27;11.00;;;10.70;99.90;;;;;;5076574;28;20536;-82
2022/09/26 02:28:47;;;;;;;12.13;9.77;;;10.70;99.90;;;;;;5076661;28;20216;-82
2022/09/26 02:31:20;;;;;;;14.17;10.70;;;10.70;99.90;;;;;;5075852;28;20448;-81
2022/09/26 02:33:48;;;;;;;14.73;10.57;;;10.80;99.90;;;;;;5076305;28;20943;-82
2022/09/26 02:36:18;;;;;;;11.77;10.53;;;10.80;99.90;;;;;;5075832;28;20473;-82
2022/09/26 02:38:45;;;;;;;13.53;10.90;;;10.80;99.90;;;;;;5075920;28;20461;-82
2022/09/26 02:41:18;;;;;;;15.77;11.80;;;10.90;99.90;;;;;;5075766;28;20794;-82
2022/09/26 02:44:07;;;;;;;12.70;11.40;;;10.80;99.90;;;;;;5075739;28;20457;-81
2022/09/26 02:46:53;;;;;;;14.03;11.10;;;10.90;99.90;;;;;;5073036;28;20484;-82
2022/09/26 02:49:35;;;;;;;14.27;10.90;;;10.90;99.90;;;;;;5075208;28;20453;-82
2022/09/26 02:52:27;;;;;;;12.93;10.80;;;10.90;99.90;;;;;;5075267;28;20849;-82
2022/09/26 02:55:00;;;;;;;13.23;10.90;;;10.90;99.90;;;;;;5076113;28;20474;-82
2022/09/26 02:57:39;;;;;;;14.20;11.00;;;11.00;99.90;;;;;;5075443;28;20460;-82
2022/09/26 03:00:10;;;;;;;12.03;10.70;;;11.00;99.90;;;;;;5055797;28;20486;-82
2022/09/26 03:02:40;;;;;;;15.82;11.82;;;11.00;99.90;;;;;;5055797;28;20451;-82
2022/09/26 03:05:11;;;;;;;11.57;10.10;;;11.00;99.90;;;;;;5074954;28;20242;-82
2022/09/26 03:07:44;;;;;;;13.33;10.97;;;11.10;99.90;;;;;;5075687;28;20486;-82
2022/09/26 03:10:13;;;;;;;12.47;10.60;;;11.10;99.90;;;;;;5074888;28;20971;-82
2022/09/26 03:12:41;;;;;;;13.40;11.40;;;11.10;99.90;;;;;;5074916;28;20457;-82
2022/09/26 03:15:09;;;;;;;13.10;10.63;;;11.10;99.90;;;;;;5075392;28;20814;-82
2022/09/26 03:17:38;;;;;;;13.30;11.60;;;11.20;99.90;;;;;;5075097;28;20454;-82
2022/09/26 03:20:10;;;;;;;12.70;11.30;;;11.20;99.90;;;;;;5076095;28;20800;-82
2022/09/26 03:22:38;;;;;;;13.90;10.63;;;11.20;99.90;;;;;;5075421;28;20962;-81
2022/09/26 03:25:07;;;;;;;12.23;9.80;;;11.20;99.90;;;;;;5075715;28;21176;-82
2022/09/26 03:27:36;;;;;;;13.60;10.40;;;11.20;99.90;;;;;;5074641;28;21017;-82
2022/09/26 03:30:03;;;;;;;11.80;9.90;;;11.30;99.90;;;;;;5079127;28;20950;-82
2022/09/26 03:32:31;;;;;;;10.07;9.10;;;11.30;99.90;;;;;;5079792;28;20454;-82
2022/09/26 03:34:57;;;;;;;10.80;9.57;;;11.30;99.90;;;;;;5079194;28;20557;-82
2022/09/26 03:37:24;;;;;;;12.83;9.40;;;11.30;99.90;;;;;;5079701;28;20455;-82
2022/09/26 03:39:52;;;;;;;10.90;9.80;;;11.30;99.90;;;;;;5078987;28;20457;-82
2022/09/26 03:42:19;;;;;;;11.80;9.53;;;11.30;99.90;;;;;;5079752;28;20450;-82
2022/09/26 03:44:46;;;;;;;8.70;7.80;;;11.30;99.90;;;;;;5079619;28;20470;-82
2022/09/26 03:47:14;;;;;;;11.30;9.70;;;11.30;99.90;;;;;;5079327;28;20512;-82
2022/09/26 03:49:41;;;;;;;9.53;8.50;;;11.20;99.90;;;;;;5077803;28;20458;-81
2022/09/26 03:52:10;;;;;;;9.57;8.43;;;11.20;99.90;;;;;;5079063;28;20438;-82
2022/09/26 03:54:37;;;;;;;13.50;9.97;;;11.20;99.90;;;;;;5078885;28;20478;-81
2022/09/26 03:57:05;;;;;;;10.33;9.30;;;11.10;99.90;;;;;;5079250;28;20451;-82
2022/09/26 03:59:32;;;;;;;9.40;8.50;;;11.10;99.90;;;;;;5079392;28;20477;-82
2022/09/26 04:01:58;;;;;;;9.27;8.17;;;11.10;99.90;;;;;;5079490;28;20465;-81
2022/09/26 04:04:25;;;;;;;12.60;8.90;;;11.10;99.90;;;;;;5075605;28;20960;-82
2022/09/26 04:06:52;;;;;;;10.87;9.30;;;11.10;99.90;;;;;;5068318;28;20550;-82
2022/09/26 04:09:19;;;;;;;9.87;8.57;;;11.10;99.90;;;;;;5065264;28;20454;-82
2022/09/26 04:11:46;;;;;;;12.13;10.27;;;11.10;99.90;;;;;;5067352;28;20447;-82
2022/09/26 04:14:14;;;;;;;9.43;7.97;;;11.10;99.90;;;;;;5069575;28;20460;-82
2022/09/26 04:16:41;;;;;;;11.50;9.87;;;11.00;99.90;;;;;;5068171;28;20447;-82
2022/09/26 04:19:08;;;;;;;9.33;8.43;;;11.00;99.90;;;;;;5066868;28;20789;-81
2022/09/26 04:21:35;;;;;;;9.70;8.17;;;11.00;99.90;;;;;;5067578;28;20461;-82
2022/09/26 04:24:02;;;;;;;8.70;7.80;;;11.00;99.90;;;;;;5065182;28;20457;-82
2022/09/26 04:26:29;;;;;;;8.77;7.97;;;11.00;99.90;;;;;;5067008;28;20471;-82
2022/09/26 04:28:57;;;;;;;8.80;7.13;;;11.00;99.90;;;;;;5069210;28;20453;-82
2022/09/26 04:31:27;;;;;;;9.73;6.88;;;11.00;99.90;;;;;;5068860;28;20203;-82
2022/09/26 04:33:54;;;;;;;8.38;7.63;;;11.00;99.90;;;;;;5068137;28;20204;-82
2022/09/26 04:36:21;;;;;;;7.50;6.80;;;11.00;99.90;;;;;;5071317;28;20226;-81
2022/09/26 04:38:48;;;;;;;8.67;7.07;;;11.00;99.90;;;;;;5076457;28;20428;-81
2022/09/26 04:41:16;;;;;;;7.50;6.80;;;11.00;99.90;;;;;;5073923;28;20455;-81
2022/09/26 04:43:43;;;;;;;7.70;7.00;;;11.00;99.90;;;;;;5068655;28;20455;-80
2022/09/26 04:46:12;;;;;;;8.70;7.63;;;11.00;99.90;;;;;;5063271;28;20227;-82
2022/09/26 04:48:40;;;;;;;7.90;7.10;;;11.00;99.90;;;;;;5058708;28;20501;-82
2022/09/26 04:51:08;;;;;;;11.43;8.23;;;10.90;99.90;;;;;;5069009;28;21001;-82
2022/09/26 04:53:35;;;;;;;8.23;7.43;;;10.90;99.90;;;;;;5078386;28;20805;-82
2022/09/26 04:56:02;;;;;;;9.10;7.40;;;10.90;99.90;;;;;;5078421;28;20540;-82
2022/09/26 04:58:30;;;;;;;9.00;7.10;;;10.90;99.90;;;;;;5078341;28;20513;-82
2022/09/26 05:01:02;;;;;;;7.83;7.00;;;10.90;99.90;;;;;;5077999;28;20446;-82
2022/09/26 05:03:29;;;;;;;8.23;7.43;;;10.90;99.90;;;;;;5077557;28;20446;-82
2022/09/26 05:05:57;;;;;;;10.53;6.47;;;10.80;99.90;;;;;;5068724;28;20493;-82
2022/09/26 05:08:25;;;;;;;11.40;7.83;;;10.70;99.90;;;;;;5066968;28;21030;-81
2022/09/26 05:10:53;;;;;;;6.97;5.90;;;10.70;99.90;;;;;;5069841;28;20450;-82
2022/09/26 05:13:20;;;;;;;7.47;6.77;;;10.60;99.90;;;;;;5072874;28;20450;-82
2022/09/26 05:15:53;;;;;;;7.77;6.83;;;10.40;99.90;;;;;;5074461;28;20465;-82
2022/09/26 05:18:20;;;;;;;7.23;6.23;;;10.50;99.90;;;;;;5069982;28;20453;-82
2022/09/26 05:20:48;;;;;;;6.93;6.32;;;10.50;99.90;;;;;;5072363;28;20451;-82
2022/09/26 05:26:18;;;;;;;7.67;6.87;;;10.50;99.90;;;;;;5070928;28;20199;-82
2022/09/26 05:26:19;;;;;;;7.20;6.60;;;10.50;99.90;;;;;;5065222;28;20539;-82
2022/09/26 05:28:47;;;;;;;9.52;7.50;;;10.50;99.90;;;;;;5070291;28;20985;-82
2022/09/26 05:31:14;;;;;;;8.00;7.03;;;10.50;99.90;;;;;;5068503;28;20230;-82
2022/09/26 05:33:41;;;;;;;8.80;7.70;;;10.50;99.90;;;;;;5066618;28;20454;-82
2022/09/26 05:36:08;;;;;;;9.07;8.27;;;10.50;99.90;;;;;;5070758;28;20537;-80
2022/09/26 05:38:36;;;;;;;7.17;6.53;;;10.50;99.90;;;;;;5075824;28;20191;-82
2022/09/26 05:41:02;;;;;;;6.80;6.20;;;10.40;99.90;;;;;;5079545;28;20449;-80
2022/09/26 05:43:30;;;;;;;6.63;6.00;;;10.40;99.90;;;;;;5080068;28;20807;-80
2022/09/26 05:45:57;;;;;;;6.37;5.80;;;10.50;99.90;;;;;;5078513;28;20233;-80
2022/09/26 05:48:24;;;;;;;6.90;6.22;;;10.50;99.90;;;;;;5083922;28;20481;-80
2022/09/26 05:50:51;;;;;;;7.47;5.82;;;10.50;99.90;;;;;;5080391;28;20203;-80
2022/09/26 05:53:18;;;;;;;7.03;6.33;;;10.50;99.90;;;;;;5077493;28;20672;-80
2022/09/26 05:55:50;;;;;;;6.53;5.63;;;10.50;99.90;;;;;;5078660;28;20461;-80
2022/09/26 05:58:18;;;;;;;6.63;6.00;;;10.50;99.90;;;;;;5078043;28;20444;-80
2022/09/26 06:00:46;;;;;;;7.70;6.55;;;10.50;99.90;;;;;;5078532;28;20221;-80
2022/09/26 06:03:14;;;;;;;8.48;7.68;;;10.50;99.90;;;;;;5073363;28;20206;-79
2022/09/26 06:05:41;;;;;;;8.23;6.65;;;10.50;99.90;;;;;;5066808;28;20234;-80
2022/09/26 06:08:08;;;;;;;6.80;5.72;;;10.50;99.90;;;;;;5085444;28;20258;-80
2022/09/26 06:10:36;;;;;;;7.57;6.47;;;10.60;99.90;;;;;;5085705;28;20212;-80
2022/09/26 06:13:06;;;;;;;7.00;6.40;;;10.70;99.90;;;;;;5085517;28;20215;-80
2022/09/26 06:15:33;;;;;;;6.97;6.23;;;10.80;99.90;;;;;;5087547;28;20260;-80
2022/09/26 06:18:00;;;;;;;8.33;7.53;;;10.80;99.90;;;;;;5085132;28;20487;-81
2022/09/26 06:20:27;;;;;;;7.70;6.90;;;10.90;99.90;;;;;;5085110;28;20461;-80
2022/09/26 06:22:54;;;;;;;6.87;5.77;;;10.90;99.90;;;;;;5087840;28;20458;-80
2022/09/26 06:25:21;;;;;;;7.63;6.50;;;11.00;99.90;;;;;;5086594;28;20556;-80
2022/09/26 06:27:48;;;;;;;8.50;7.70;;;11.10;99.90;;;;;;5083202;28;20486;-80
2022/09/26 06:30:17;;;;;;;7.17;5.37;;;11.10;99.90;;;;;;5088255;28;20457;-79
2022/09/26 06:32:45;;;;;;;7.30;6.60;;;11.20;99.90;;;;;;5076046;28;20457;-80
2022/09/26 06:35:12;;;;;;;7.47;5.83;;;11.30;99.90;;;;;;5082599;28;20478;-80
2022/09/26 06:37:39;;;;;;;6.80;6.20;;;11.40;99.90;;;;;;5083091;28;20441;-80
2022/09/26 06:40:10;;;;;;;17.80;6.23;;;11.50;99.90;;;;;;5082485;28;20450;-81
2022/09/26 06:42:37;;;;;;;5.70;5.20;;;11.60;99.90;;;;;;5083822;28;20515;-80
2022/09/26 06:45:06;;;;;;;5.80;5.30;;;11.70;99.90;;;;;;5082335;28;20481;-80
2022/09/26 06:47:34;;;;;;;7.30;5.80;;;11.70;99.90;;;;;;5083152;28;20485;-80
2022/09/26 06:50:02;;;;;;;6.17;5.57;;;11.80;99.90;;;;;;5083868;28;20467;-81
2022/09/26 06:52:33;;;;;;;4.93;4.53;;;11.80;99.90;;;;;;5082361;28;20544;-80
2022/09/26 06:55:01;;;;;;;5.73;5.27;;;11.90;99.90;;;;;;5078651;28;20482;-81
2022/09/26 06:57:28;;;;;;;7.33;6.73;;;12.00;99.90;;;;;;5077979;28;20451;-80
2022/09/26 06:59:55;;;;;;;5.07;4.77;;;12.10;99.90;;;;;;5079701;28;20524;-80
2022/09/26 07:02:25;;;;;;;5.33;4.83;;;12.20;99.90;;;;;;5079368;28;20453;-81
2022/09/26 07:04:53;;;;;;;4.30;3.90;;;12.20;99.90;;;;;;5083613;28;20484;-82
2022/09/26 07:07:19;;;;;;;5.60;4.80;;;12.30;99.90;;;;;;5079823;28;20848;-81
2022/09/26 07:09:46;;;;;;;6.63;5.50;;;12.40;99.90;;;;;;5081311;28;20489;-78
2022/09/26 07:12:14;;;;;;;5.10;4.70;;;12.40;99.90;;;;;;5080375;28;20447;-79
2022/09/26 07:14:41;;;;;;;5.80;5.17;;;12.60;99.90;;;;;;5081686;28;20508;-86
2022/09/26 07:17:08;;;;;;;5.47;4.87;;;12.60;99.90;;;;;;5092174;28;20446;-84
2022/09/26 07:19:34;;;;;;;7.23;6.70;;;12.60;99.90;;;;;;5088222;28;20482;-84
2022/09/26 07:22:03;;;;;;;4.97;4.37;;;12.60;99.90;;;;;;5087377;28;20443;-84
2022/09/26 07:24:30;;;;;;;4.80;4.50;;;12.60;99.90;;;;;;5092837;28;20471;-84
2022/09/26 07:26:57;;;;;;;3.70;3.50;;;12.60;99.90;;;;;;5086294;28;20454;-85
2022/09/26 07:29:23;;;;;;;4.77;4.37;;;12.70;99.90;;;;;;5067935;28;20480;-84
2022/09/26 07:31:50;;;;;;;5.10;4.47;;;12.70;99.90;;;;;;5085770;28;20462;-83
2022/09/26 07:34:17;;;;;;;5.03;4.40;;;12.70;99.90;;;;;;5086422;28;20461;-83
2022/09/26 07:36:44;;;;;;;5.90;4.53;;;12.70;99.90;;;;;;5087436;28;20451;-85
2022/09/26 07:39:12;;;;;;;4.37;4.07;;;12.70;99.90;;;;;;5086917;28;20446;-83
2022/09/26 07:41:39;;;;;;;4.67;4.27;;;12.80;99.90;;;;;;5086845;28;20458;-82
2022/09/26 07:44:06;;;;;;;4.30;4.00;;;12.90;99.90;;;;;;5084010;28;20447;-87
2022/09/26 07:52:01;;;;;;;4.33;3.93;;;13.00;99.90;;;;;;5070761;28;20516;-84
2022/09/26 07:54:30;;;;;;;4.67;4.37;;;13.00;99.90;;;;;;5077810;28;20471;-81
2022/09/26 07:56:57;;;;;;;6.50;4.40;;;13.10;99.90;;;;;;5085328;28;20439;-83
2022/09/26 07:59:24;;;;;;;4.53;4.20;;;13.30;99.90;;;;;;5081861;28;20503;-85
2022/09/26 08:01:53;;;;;;;3.67;3.37;;;13.40;99.90;;;;;;5082186;28;20458;-85
2022/09/26 08:04:20;;;;;;;3.90;3.60;;;13.50;99.90;;;;;;5078085;28;20444;-84
2022/09/26 08:06:46;;;;;;;4.10;3.80;;;13.60;99.90;;;;;;5073011;28;20444;-83
2022/09/26 08:09:13;;;;;;;6.00;3.50;;;13.70;99.90;;;;;;5069823;28;20543;-82
2022/09/26 08:11:41;;;;;;;4.30;3.63;;;13.70;99.90;;;;;;5087464;28;20477;-85
2022/09/26 08:14:08;;;;;;;3.20;3.00;;;13.70;99.90;;;;;;5087804;28;20455;-83
2022/09/26 08:16:38;;;;;;;4.57;4.17;;;13.80;99.90;;;;;;5090178;28;20447;-83
2022/09/26 08:19:06;;;;;;;3.40;3.10;;;13.70;99.90;;;;;;5096319;28;20516;-86
2022/09/26 08:21:36;;;;;;;3.93;3.63;;;13.80;99.90;;;;;;5086693;28;20459;-85
2022/09/26 08:24:05;;;;;;;3.90;3.57;;;14.00;99.90;;;;;;5089019;28;21011;-83
2022/09/26 08:26:37;;;;;;;4.50;4.10;;;14.10;99.90;;;;;;5090709;28;20452;-84
2022/09/26 08:29:10;;;;;;;3.63;3.40;;;14.20;99.90;;;;;;5090703;28;20644;-81
2022/09/26 08:31:44;;;;;;;3.67;3.37;;;14.10;99.90;;;;;;5092205;28;20463;-84
2022/09/26 08:34:12;;;;;;;5.33;3.40;;;14.30;99.90;;;;;;5093411;28;20519;-84
2022/09/26 08:36:52;;;;;;;3.87;3.53;;;14.20;99.90;;;;;;5091882;28;20999;-80
2022/09/26 08:39:20;;;;;;;5.30;3.60;;;14.20;99.90;;;;;;5090979;28;20448;-86
2022/09/26 08:42:07;;;;;;;3.67;3.37;;;14.00;99.90;;;;;;5092891;28;20449;-85
2022/09/26 08:44:52;;;;;;;3.63;3.33;;;14.00;99.90;;;;;;5093019;28;20559;-86
2022/09/26 08:47:38;;;;;;;3.63;3.00;;;14.20;99.90;;;;;;5088910;28;20445;-85
2022/09/26 08:50:18;;;;;;;5.40;4.90;;;14.30;99.90;;;;;;5092005;28;20436;-86
2022/09/26 08:52:50;;;;;;;3.87;3.57;;;14.30;99.90;;;;;;5092130;28;20454;-86
2022/09/26 08:55:21;;;;;;;4.47;4.00;;;14.40;99.90;;;;;;5094155;28;20482;-88
2022/09/26 08:57:55;;;;;;;4.03;3.47;;;14.50;99.90;;;;;;5093434;28;20450;-86
2022/09/26 09:00:26;;;;;;;5.50;3.00;;;14.50;99.90;;;;;;5081065;28;20455;-86
2022/09/26 09:03:20;;;;;;;3.20;3.00;;;14.40;99.90;;;;;;5084884;28;20443;-84
2022/09/26 09:05:51;;;;;;;3.77;3.30;;;14.30;99.90;;;;;;5095130;28;20478;-85
2022/09/26 09:08:24;;;;;;;6.30;3.43;;;14.30;99.90;;;;;;5091914;28;20510;-86
2022/09/26 09:11:03;;;;;;;4.67;4.27;;;14.30;99.90;;;;;;5089109;28;20455;-84
2022/09/26 09:13:46;;;;;;;3.53;3.23;;;14.30;99.90;;;;;;5097220;28;20436;-81
2022/09/26 09:16:31;;;;;;;5.73;3.47;;;14.30;99.90;;;;;;5092084;28;20523;-85
2022/09/26 09:19:06;;;;;;;3.43;3.13;;;14.30;99.90;;;;;;5091702;28;20436;-85
2022/09/26 09:21:44;;;;;;;3.00;2.70;;;14.30;99.90;;;;;;5089427;28;20438;-84
2022/09/26 09:24:27;;;;;;;2.90;2.70;;;14.30;99.90;;;;;;5088215;28;20470;-84
2022/09/26 09:27:04;;;;;;;4.47;3.53;;;14.40;99.90;;;;;;5087405;28;20475;-84
2022/09/26 09:29:50;;;;;;;5.80;3.20;;;14.50;99.90;;;;;;5086000;28;20861;-86
2022/09/26 09:32:29;;;;;;;4.00;2.93;;;14.60;99.90;;;;;;5089328;28;20443;-86
2022/09/26 09:35:02;;;;;;;4.27;3.70;;;14.80;99.90;;;;;;5089457;28;20460;-84
2022/09/26 09:37:50;;;;;;;3.60;3.30;;;14.80;99.90;;;;;;5092134;28;20649;-86
2022/09/26 09:40:27;;;;;;;3.77;3.30;;;14.90;99.90;;;;;;5092859;28;20528;-85
2022/09/26 09:43:08;;;;;;;3.90;3.43;;;14.90;99.90;;;;;;5088677;28;20904;-84
2022/09/26 09:45:47;;;;;;;3.63;2.33;;;15.00;99.90;;;;;;5072436;28;20463;-79
2022/09/26 09:48:22;;;;;;;4.10;3.67;;;15.00;99.90;;;;;;5089392;28;20480;-85
2022/09/26 09:51:00;;;;;;;3.90;3.10;;;15.10;99.90;;;;;;5090161;28;20447;-84
2022/09/26 09:53:53;;;;;;;2.83;2.63;;;15.20;99.90;;;;;;5089405;28;20441;-84
2022/09/26 09:56:33;;;;;;;2.90;2.60;;;15.40;99.90;;;;;;5089754;28;20507;-85
2022/09/26 09:59:20;;;;;;;2.73;2.50;;;15.50;99.90;;;;;;5087779;28;20450;-84
2022/09/26 10:02:01;;;;;;;2.63;2.43;;;15.70;99.90;;;;;;5084828;28;20524;-85
2022/09/26 10:04:42;;;;;;;2.73;2.40;;;16.00;99.90;;;;;;5087086;28;20485;-83
2022/09/26 10:07:20;;;;;;;3.50;2.60;;;16.40;99.90;;;;;;5095254;28;20441;-83
2022/09/26 10:09:53;;;;;;;3.40;2.90;;;16.50;99.90;;;;;;5090660;28;20484;-83
2022/09/26 10:12:29;;;;;;;3.67;2.90;;;16.70;99.90;;;;;;5090881;28;20513;-83
2022/09/26 10:15:07;;;;;;;2.70;2.50;;;16.60;99.20;;;;;;5090481;28;20472;-83
2022/09/26 10:17:44;;;;;;;3.13;2.40;;;16.60;99.30;;;;;;5091271;28;20445;-83
2022/09/26 10:20:37;;;;;;;2.30;2.10;;;16.40;98.20;;;;;;5090339;28;20559;-83
2022/09/26 10:23:23;;;;;;;3.03;2.33;;;16.30;98.60;;;;;;5091074;28;20444;-83
2022/09/26 10:25:58;;;;;;;2.60;1.93;;;16.30;99.60;;;;;;5090955;28;20504;-83
2022/09/26 10:28:32;;;;;;;2.77;2.50;;;16.40;98.60;;;;;;5089757;28;20450;-83
2022/09/26 10:31:06;;;;;;;2.07;1.97;;;16.50;98.80;;;;;;5090409;28;20721;-83
2022/09/26 10:33:57;;;;;;;1.70;1.60;;;16.70;99.00;;;;;;5090598;28;20476;-83
2022/09/26 10:36:31;;;;;;;2.10;2.00;;;16.70;98.00;;;;;;5066735;28;20510;-83
2022/09/26 10:41:46;;;;;;;1.87;1.77;;;17.00;96.70;;;;;;5077523;28;20432;-83
2022/09/26 10:44:24;;;;;;;1.70;1.60;;;17.20;96.70;;;;;;5077293;28;20969;-84
2022/09/26 10:46:55;;;;;;;2.57;2.30;;;17.40;96.00;;;;;;5077057;28;20446;-84
2022/09/26 10:49:26;;;;;;;3.10;1.77;;;17.60;96.10;;;;;;5077012;28;21060;-83
2022/09/26 10:52:03;;;;;;;3.50;1.83;;;18.00;95.50;;;;;;5077019;28;20461;-84
2022/09/26 10:54:40;;;;;;;1.53;1.43;;;18.30;95.30;;;;;;5077308;28;20470;-83
2022/09/26 10:57:17;;;;;;;3.20;2.17;;;18.50;95.20;;;;;;5077274;28;20504;-84
2022/09/26 10:59:45;;;;;;;1.47;1.47;;;18.70;95.00;;;;;;5077844;28;20529;-84
2022/09/26 11:02:18;;;;;;;1.30;1.23;;;18.90;93.90;;;;;;5088992;28;21017;-83
2022/09/26 11:07:38;;;;;;;1.77;1.67;;;19.70;90.40;;;;;;5077281;28;20447;-82
2022/09/26 11:10:09;;;;;;;3.83;1.70;;;20.20;88.60;;;;;;5076861;28;20486;-83
2022/09/26 11:12:38;;;;;;;1.20;1.00;;;20.60;85.30;;;;;;5077042;28;20455;-84
2022/09/26 11:15:09;;;;;;;1.77;1.20;;;20.70;83.70;;;;;;5078420;28;20481;-84
2022/09/26 11:17:43;;;;;;;1.50;1.40;;;20.40;81.20;;;;;;5076698;28;20447;-83
2022/09/26 11:20:19;;;;;;;2.17;1.00;;;19.80;81.10;;;;;;5076860;28;20443;-84
2022/09/26 11:22:54;;;;;;;1.30;1.10;;;19.60;84.90;;;;;;5076742;28;20440;-83
2022/09/26 11:25:26;;;;;;;1.77;1.33;;;19.20;84.00;;;;;;5076692;28;20566;-83
2022/09/26 11:27:59;;;;;;;1.20;1.10;;;18.70;84.80;;;;;;5077500;28;20435;-83
2022/09/26 11:30:28;;;;;;;1.50;1.40;;;18.10;86.20;;;;;;5077310;28;20526;-83
2022/09/26 11:32:59;;;;;;;2.30;1.53;;;17.80;88.40;;;;;;5077522;28;20980;-84
2022/09/26 11:35:34;;;;;;;1.30;1.20;;;17.40;89.60;;;;;;5077169;28;20481;-83
2022/09/26 11:38:19;;;;;;;1.50;1.40;;;16.80;90.50;;;;;;5076968;28;20460;-83
2022/09/26 11:41:02;;;;;;;2.63;1.43;;;16.30;91.00;;;;;;5076601;28;20454;-83
2022/09/26 11:43:49;;;;;;;1.37;1.27;;;16.60;91.10;;;;;;5077252;28;20450;-84
2022/09/26 11:46:30;;;;;;;2.00;1.93;;;17.10;91.20;;;;;;5076511;28;20457;-82
2022/09/26 11:49:33;;;;;;;1.67;1.30;;;18.10;91.60;;;;;;5077346;28;21035;-84
2022/09/26 11:52:13;;;;;;;0.93;0.93;;;19.10;89.80;;;;;;5081135;28;20457;-83
2022/09/26 11:55:00;;;;;;;1.53;1.40;;;19.90;87.20;;;;;;5080671;28;20482;-84
2022/09/26 11:57:44;;;;;;;1.20;1.00;;;20.50;82.60;;;;;;5093595;28;20471;-83
2022/09/26 12:00:23;;;;;;;1.30;1.20;;;20.20;81.80;;;;;;5080750;28;20453;-84
2022/09/26 12:03:18;;;;;;;1.50;1.40;;;19.80;83.40;;;;;;5080159;28;20451;-84
2022/09/26 12:05:53;;;;;;;3.80;1.37;;;19.40;86.60;;;;;;5080492;28;20504;-84
2022/09/26 12:08:34;;;;;;;1.17;1.13;;;19.10;88.20;;;;;;5080158;28;20588;-84
2022/09/26 12:11:14;;;;;;;1.13;1.00;;;18.70;85.30;;;;;;5080764;28;20447;-83
2022/09/26 12:13:51;;;;;;;1.07;1.07;;;18.30;86.50;;;;;;5081035;28;20479;-84
2022/09/26 12:16:25;;;;;;;1.10;1.00;;;18.70;85.60;;;;;;5080480;28;20521;-84
2022/09/26 12:19:01;;;;;;;2.10;1.87;;;19.60;85.70;;;;;;5080907;28;20457;-84
2022/09/26 12:22:26;;;;;;;1.43;0.83;;;20.40;82.50;;;;;;5080641;28;20452;-85
2022/09/26 12:24:36;;;;;;;2.63;1.27;;;20.90;80.20;;;;;;5080425;28;20464;-84
2022/09/26 12:27:11;;;;;;;1.37;1.10;;;21.60;80.10;;;;;;5080404;28;20447;-84
2022/09/26 12:29:44;;;;;;;0.70;0.70;;;22.20;77.60;;;;;;5080238;28;20492;-85
2022/09/26 12:32:37;;;;;;;1.37;1.10;;;22.60;73.60;;;;;;5081212;28;20454;-83
2022/09/26 12:35:41;;;;;;;1.73;1.40;;;22.60;73.80;;;;;;5072145;28;20486;-84
2022/09/26 12:38:20;;;;;;;1.13;0.97;;;22.40;72.20;;;;;;4998659;28;21029;-84
2022/09/26 12:41:02;;;;;;;1.23;1.23;;;21.80;72.00;;;;;;5072054;28;20463;-84
2022/09/26 12:43:45;;;;;;;1.20;1.00;;;21.20;70.80;;;;;;5080627;28;20932;-84
2022/09/26 12:46:41;;;;;;;1.60;1.10;;;20.50;72.80;;;;;;5080529;28;20616;-85
2022/09/26 12:49:21;;;;;;;0.90;0.90;;;19.30;72.50;;;;;;5080361;28;20478;-84
2022/09/26 12:51:53;;;;;;;1.43;0.97;;;18.70;76.80;;;;;;5088256;28;20451;-83
2022/09/26 12:54:43;;;;;;;1.30;0.93;;;18.50;78.50;;;;;;5083771;28;20470;-84
2022/09/26 12:57:21;;;;;;;0.80;0.80;;;18.10;80.60;;;;;;5079800;28;20955;-84
2022/09/26 13:00:11;;;;;;;1.53;0.93;;;17.90;81.50;;;;;;5079040;28;20435;-84
2022/09/26 13:03:03;;;;;;;1.53;1.17;;;17.50;83.00;;;;;;5079425;28;20434;-84
2022/09/26 13:05:45;;;;;;;3.00;1.10;;;17.20;84.80;;;;;;5084395;28;20469;-83
2022/09/26 13:08:20;;;;;;;1.00;0.90;;;17.00;86.70;;;;;;5088823;28;20456;-83
2022/09/26 13:11:00;;;;;;;0.70;0.70;;;16.40;83.90;;;;;;5089063;28;20485;-83
2022/09/26 13:14:07;;;;;;;0.97;0.80;;;16.10;85.00;;;;;;5090223;28;20456;-83
2022/09/26 13:16:47;;;;;;;0.80;0.80;;;15.80;86.20;;;;;;5090900;28;20793;-83
2022/09/26 13:19:22;;;;;;;1.27;0.90;;;15.50;87.80;;;;;;5090469;28;20447;-83
2022/09/26 13:21:54;;;;;;;0.87;0.87;;;15.20;88.90;;;;;;5090301;28;20446;-83